createdAt,value
2019-04-16T00:00:15.671Z,12.20
2019-04-16T00:02:48.473Z,12.20
2019-04-16T00:08:38.648Z,12.10
2019-04-16T00:11:15.003Z,12.00
2019-04-16T00:13:45.333Z,12.00
2019-04-16T00:16:14.063Z,11.90
2019-04-16T00:18:56.386Z,11.80
2019-04-16T00:21:20.596Z,11.80
2019-04-16T00:24:07.322Z,11.80
2019-04-16T00:26:36.060Z,11.80
2019-04-16T00:29:05.072Z,11.80
2019-04-16T00:31:34.276Z,11.90
2019-04-16T00:34:04.342Z,11.90
2019-04-16T00:36:33.012Z,11.90
2019-04-16T00:39:01.671Z,11.90
2019-04-16T00:41:30.332Z,11.90
2019-04-16T00:43:58.998Z,12.10
2019-04-16T00:46:27.665Z,12.20
2019-04-16T00:48:56.398Z,12.30
2019-04-16T00:51:25.063Z,12.40
2019-04-16T00:53:53.732Z,12.40
2019-04-16T00:56:22.456Z,12.30
2019-04-16T00:58:52.022Z,12.20
2019-04-16T01:01:21.587Z,12.30
2019-04-16T01:03:50.272Z,12.30
2019-04-16T01:06:18.933Z,12.40
2019-04-16T01:08:54.390Z,12.40
2019-04-16T01:11:17.942Z,12.40
2019-04-16T01:13:46.683Z,12.40
2019-04-16T01:16:15.605Z,12.40
2019-04-16T01:18:44.260Z,12.40
2019-04-16T01:21:14.266Z,12.40
2019-04-16T01:23:43.240Z,12.40
2019-04-16T01:26:11.982Z,12.40
2019-04-16T01:28:51.313Z,12.20
2019-04-16T01:31:38.778Z,12.20
2019-04-16T01:34:25.700Z,12.00
2019-04-16T01:37:12.263Z,11.90
2019-04-16T01:39:47.358Z,12.00
2019-04-16T01:42:12.959Z,11.90
2019-04-16T01:44:41.622Z,12.00
2019-04-16T01:47:10.399Z,12.00
2019-04-16T01:49:39.319Z,12.00
2019-04-16T01:52:09.393Z,11.80
2019-04-16T01:54:38.050Z,11.70
2019-04-16T01:57:06.859Z,11.60
2019-04-16T01:59:36.371Z,11.60
2019-04-16T02:02:05.246Z,11.70
2019-04-16T02:04:33.899Z,11.70
2019-04-16T02:07:02.562Z,11.70
2019-04-16T02:09:34.165Z,11.70
2019-04-16T02:12:01.645Z,11.70
2019-04-16T02:14:30.307Z,11.70
2019-04-16T02:16:59.026Z,11.70
2019-04-16T02:19:32.259Z,11.70
2019-04-16T02:21:58.012Z,11.70
2019-04-16T02:24:26.734Z,11.70
2019-04-16T02:26:55.534Z,11.70
2019-04-16T02:29:24.249Z,11.60
2019-04-16T02:31:52.977Z,11.40
2019-04-16T02:34:21.771Z,11.30
2019-04-16T02:36:50.503Z,11.40
2019-04-16T02:39:25.609Z,11.30
2019-04-16T02:41:49.552Z,11.20
2019-04-16T02:44:18.226Z,11.10
2019-04-16T02:46:46.888Z,11.10
2019-04-16T02:49:15.551Z,11.10
2019-04-16T02:51:45.864Z,11.00
2019-04-16T02:54:18.971Z,11.10
2019-04-16T02:57:04.581Z,11.10
2019-04-16T02:59:35.283Z,11.10
2019-04-16T03:02:05.657Z,11.00
2019-04-16T03:04:42.220Z,11.00
2019-04-16T03:07:10.946Z,11.00
2019-04-16T03:09:40.877Z,11.10
2019-04-16T03:12:09.727Z,11.10
2019-04-16T03:14:38.474Z,11.10
2019-04-16T03:17:11.991Z,11.00
2019-04-16T03:19:42.295Z,10.90
2019-04-16T03:22:11.007Z,10.80
2019-04-16T03:24:40.275Z,10.80
2019-04-16T03:27:10.037Z,10.90
2019-04-16T03:29:38.877Z,10.80
2019-04-16T03:32:12.404Z,10.90
2019-04-16T03:34:38.024Z,10.90
2019-04-16T03:37:06.684Z,10.70
2019-04-16T03:39:35.348Z,10.70
2019-04-16T03:42:04.177Z,10.70
2019-04-16T03:44:33.561Z,10.70
2019-04-16T03:47:03.146Z,10.80
2019-04-16T03:49:31.808Z,10.70
2019-04-16T03:52:00.485Z,10.70
2019-04-16T03:54:29.144Z,10.70
2019-04-16T03:57:01.876Z,10.70
2019-04-16T03:59:28.128Z,10.70
2019-04-16T04:01:56.795Z,10.70
2019-04-16T04:04:28.964Z,10.70
2019-04-16T04:06:55.882Z,10.70
2019-04-16T04:09:24.540Z,10.70
2019-04-16T04:11:53.215Z,10.50
2019-04-16T04:14:23.402Z,10.40
2019-04-16T04:16:52.267Z,10.30
2019-04-16T04:19:20.932Z,10.20
2019-04-16T04:21:50.551Z,10.30
2019-04-16T04:24:19.915Z,10.30
2019-04-16T04:26:48.820Z,10.40
2019-04-16T04:29:20.740Z,10.40
2019-04-16T04:31:48.660Z,10.50
2019-04-16T04:34:17.787Z,10.50
2019-04-16T04:36:46.577Z,10.40
2019-04-16T04:39:15.890Z,10.30
2019-04-16T04:41:44.796Z,10.30
2019-04-16T04:44:13.468Z,10.10
2019-04-16T04:46:43.295Z,10.00
2019-04-16T04:49:12.512Z,10.00
2019-04-16T04:51:43.438Z,10.00
2019-04-16T04:54:11.551Z,10.10
2019-04-16T04:56:40.223Z,10.10
2019-04-16T04:59:08.912Z,10.10
2019-04-16T05:01:37.643Z,10.10
2019-04-16T05:04:10.570Z,10.10
2019-04-16T05:06:40.884Z,10.20
2019-04-16T05:09:09.622Z,10.30
2019-04-16T05:11:38.371Z,10.50
2019-04-16T05:14:07.115Z,10.50
2019-04-16T05:16:35.835Z,10.50
2019-04-16T05:19:04.579Z,10.50
2019-04-16T05:21:33.250Z,10.60
2019-04-16T05:24:02.050Z,10.70
2019-04-16T05:26:33.608Z,10.80
2019-04-16T05:29:17.069Z,10.80
2019-04-16T05:31:43.526Z,10.90
2019-04-16T05:34:12.435Z,11.00
2019-04-16T05:36:46.554Z,11.20
2019-04-16T05:39:12.041Z,11.40
2019-04-16T05:41:40.911Z,11.50
2019-04-16T05:44:09.562Z,11.70
2019-04-16T05:46:38.426Z,11.70
2019-04-16T05:49:07.280Z,11.70
2019-04-16T05:51:36.018Z,11.70
2019-04-16T05:54:12.225Z,11.80
2019-04-16T05:56:40.762Z,11.90
2019-04-16T05:59:09.580Z,12.00
2019-04-16T06:01:45.267Z,12.20
2019-04-16T06:04:12.856Z,12.20
2019-04-16T06:06:41.532Z,12.10
2019-04-16T06:09:12.261Z,12.30
2019-04-16T06:11:40.561Z,12.50
2019-04-16T06:14:20.166Z,12.70
2019-04-16T06:16:57.727Z,12.90
2019-04-16T06:19:36.966Z,12.90
2019-04-16T06:22:22.349Z,12.90
2019-04-16T06:24:58.481Z,12.90
2019-04-16T06:27:43.758Z,13.10
2019-04-16T06:30:33.866Z,13.20
2019-04-16T06:33:04.227Z,13.30
2019-04-16T06:35:54.161Z,13.50
2019-04-16T06:38:24.535Z,13.50
2019-04-16T06:40:57.429Z,13.40
2019-04-16T06:43:36.448Z,13.30
2019-04-16T06:46:12.407Z,13.30
2019-04-16T06:48:51.632Z,13.30
2019-04-16T06:51:34.198Z,13.60
2019-04-16T06:54:21.075Z,13.80
2019-04-16T06:57:09.673Z,14.10
2019-04-16T06:59:39.540Z,14.40
2019-04-16T07:02:26.186Z,14.50
2019-04-16T07:05:12.980Z,14.70
2019-04-16T07:07:46.877Z,14.70
2019-04-16T07:10:17.348Z,14.70
2019-04-16T07:12:47.785Z,14.80
2019-04-16T07:15:22.626Z,14.90
2019-04-16T07:17:47.289Z,15.00
2019-04-16T07:20:16.058Z,15.20
2019-04-16T07:22:45.027Z,15.20
2019-04-16T07:25:14.232Z,15.10
2019-04-16T07:27:58.411Z,15.10
2019-04-16T07:30:28.908Z,15.00
2019-04-16T07:33:00.967Z,15.00
2019-04-16T07:35:43.177Z,15.00
2019-04-16T07:38:16.282Z,15.00
2019-04-16T07:41:01.644Z,15.10
2019-04-16T07:43:47.519Z,15.20
2019-04-16T07:46:18.130Z,15.30
2019-04-16T07:48:51.467Z,15.30
2019-04-16T07:51:23.270Z,15.50
2019-04-16T07:54:02.168Z,15.50
2019-04-16T07:56:31.311Z,15.60
2019-04-16T07:59:01.593Z,15.70
2019-04-16T08:01:30.391Z,15.80
2019-04-16T08:04:01.468Z,15.90
2019-04-16T08:06:29.372Z,16.00
2019-04-16T08:08:58.563Z,15.80
2019-04-16T08:11:27.408Z,15.90
2019-04-16T08:13:56.095Z,16.00
2019-04-16T08:16:24.850Z,16.00
2019-04-16T08:18:53.512Z,16.20
2019-04-16T08:21:23.023Z,16.40
2019-04-16T08:23:53.429Z,16.70
2019-04-16T08:26:22.089Z,16.80
2019-04-16T08:28:50.775Z,16.60
2019-04-16T08:31:21.066Z,16.70
2019-04-16T08:33:49.879Z,16.80
2019-04-16T08:36:18.553Z,17.00
2019-04-16T08:38:47.224Z,17.10
2019-04-16T08:41:19.799Z,17.10
2019-04-16T08:43:48.215Z,17.00
2019-04-16T08:46:17.230Z,17.40
2019-04-16T08:48:49.019Z,17.70
2019-04-16T08:51:29.566Z,17.90
2019-04-16T08:53:47.354Z,18.20
2019-04-16T08:56:16.153Z,18.30
2019-04-16T08:58:49.061Z,18.40
2019-04-16T09:01:23.561Z,18.50
2019-04-16T09:04:05.091Z,18.50
2019-04-16T09:06:34.663Z,18.50
2019-04-16T09:09:24.751Z,18.40
2019-04-16T09:11:54.765Z,18.50
2019-04-16T09:14:25.688Z,18.60
2019-04-16T09:17:02.039Z,18.60
2019-04-16T09:19:30.772Z,18.70
2019-04-16T09:21:59.487Z,18.60
2019-04-16T09:24:40.464Z,18.60
2019-04-16T09:27:12.597Z,18.80
2019-04-16T09:29:58.727Z,18.90
2019-04-16T09:32:45.067Z,19.20
2019-04-16T09:35:19.730Z,19.50
2019-04-16T09:38:03.359Z,19.70
2019-04-16T09:40:49.923Z,20.00
2019-04-16T09:43:20.204Z,20.40
2019-04-16T09:45:48.868Z,20.80
2019-04-16T09:48:18.520Z,21.30
2019-04-16T09:50:47.987Z,21.20
2019-04-16T09:53:16.717Z,21.50
2019-04-16T09:55:47.629Z,22.10
2019-04-16T09:58:22.985Z,22.40
2019-04-16T10:00:55.763Z,22.30
2019-04-16T10:03:28.293Z,22.50
2019-04-16T10:05:56.896Z,22.50
2019-04-16T10:08:25.644Z,22.90
2019-04-16T10:10:54.410Z,23.20
2019-04-16T10:13:30.674Z,23.40
2019-04-16T10:15:55.626Z,23.10
2019-04-16T10:18:23.780Z,22.90
2019-04-16T10:20:52.507Z,23.20
2019-04-16T10:23:31.851Z,23.40
2019-04-16T10:26:04.458Z,23.20
2019-04-16T10:28:40.378Z,23.20
2019-04-16T10:31:10.739Z,23.70
2019-04-16T10:33:39.411Z,23.90
2019-04-16T10:36:08.161Z,23.90
2019-04-16T10:38:38.506Z,24.60
2019-04-16T10:41:08.805Z,25.00
2019-04-16T10:43:51.068Z,26.00
2019-04-16T10:46:21.367Z,26.00
2019-04-16T10:49:00.924Z,25.70
2019-04-16T10:51:31.301Z,25.60
2019-04-16T10:54:01.621Z,25.10
2019-04-16T10:56:48.300Z,25.30
2019-04-16T10:59:34.977Z,26.50
2019-04-16T11:02:21.394Z,26.20
2019-04-16T11:05:06.656Z,25.40
2019-04-16T11:07:36.370Z,25.30
2019-04-16T11:10:07.498Z,25.80
2019-04-16T11:12:39.242Z,26.00
2019-04-16T11:15:12.766Z,26.20
2019-04-16T11:17:41.510Z,26.30
2019-04-16T11:20:10.339Z,26.20
2019-04-16T11:22:39.113Z,26.00
2019-04-16T11:25:08.594Z,26.10
2019-04-16T11:27:37.302Z,26.30
2019-04-16T11:30:09.334Z,26.50
2019-04-16T11:32:39.920Z,26.80
2019-04-16T11:35:08.487Z,26.80
2019-04-16T11:37:38.239Z,26.20
2019-04-16T11:40:07.357Z,26.30
2019-04-16T11:42:36.032Z,26.40
2019-04-16T11:45:06.469Z,26.40
2019-04-16T11:47:35.186Z,26.00
2019-04-16T11:50:05.270Z,25.80
2019-04-16T11:52:33.901Z,25.70
2019-04-16T11:55:03.578Z,26.50
2019-04-16T11:57:34.113Z,27.60
2019-04-16T12:00:07.800Z,27.50
2019-04-16T12:02:40.068Z,27.30
2019-04-16T12:05:19.686Z,26.80
2019-04-16T12:07:48.243Z,26.80
2019-04-16T12:10:18.804Z,26.60
2019-04-16T12:12:54.870Z,26.50
2019-04-16T12:15:37.150Z,26.60
2019-04-16T12:18:07.446Z,26.70
2019-04-16T12:20:46.827Z,27.40
2019-04-16T12:23:35.261Z,27.50
2019-04-16T12:26:11.488Z,27.10
2019-04-16T12:28:58.094Z,26.70
2019-04-16T12:31:40.293Z,26.40
2019-04-16T12:34:13.417Z,26.80
2019-04-16T12:36:43.732Z,26.70
2019-04-16T12:39:19.587Z,26.80
2019-04-16T12:41:54.464Z,26.80
2019-04-16T12:44:44.410Z,26.90
2019-04-16T12:47:05.036Z,27.00
2019-04-16T12:49:41.116Z,26.60
2019-04-16T12:52:15.375Z,26.80
2019-04-16T12:54:43.389Z,26.90
2019-04-16T12:57:22.523Z,27.20
2019-04-16T13:00:01.655Z,27.70
2019-04-16T13:02:37.763Z,27.60
2019-04-16T13:05:09.003Z,27.10
2019-04-16T13:07:55.292Z,27.30
2019-04-16T13:10:25.583Z,27.30
2019-04-16T13:12:55.946Z,27.10
2019-04-16T13:15:41.501Z,27.30
2019-04-16T13:18:11.815Z,27.50
2019-04-16T13:21:03.885Z,27.80
2019-04-16T13:23:30.175Z,27.20
2019-04-16T13:26:16.895Z,27.90
2019-04-16T13:28:45.999Z,28.20
2019-04-16T13:31:14.735Z,29.00
2019-04-16T13:33:46.218Z,29.10
2019-04-16T13:36:14.394Z,28.70
2019-04-16T13:38:44.719Z,28.80
2019-04-16T13:41:13.433Z,28.80
2019-04-16T13:43:46.608Z,28.50
2019-04-16T13:46:16.367Z,28.20
2019-04-16T13:49:01.714Z,28.40
2019-04-16T13:51:34.950Z,28.20
2019-04-16T13:54:19.282Z,28.60
2019-04-16T13:56:53.575Z,28.60
2019-04-16T13:59:24.022Z,28.50
2019-04-16T14:01:54.320Z,28.10
2019-04-16T14:04:23.070Z,26.70
2019-04-16T14:06:51.724Z,25.60
2019-04-16T14:09:20.464Z,25.60
2019-04-16T14:11:51.282Z,25.40
2019-04-16T14:14:22.477Z,24.90
2019-04-16T14:16:50.027Z,24.30
2019-04-16T14:19:18.848Z,24.50
2019-04-16T14:21:49.506Z,25.90
2019-04-16T14:24:18.197Z,27.10
2019-04-16T14:26:46.849Z,27.70
2019-04-16T14:29:15.515Z,27.30
2019-04-16T14:31:46.050Z,27.20
2019-04-16T14:34:22.100Z,27.70
2019-04-16T14:36:53.258Z,28.20
2019-04-16T14:39:24.716Z,27.40
2019-04-16T14:41:54.936Z,26.70
2019-04-16T14:44:25.239Z,26.30
2019-04-16T14:46:53.916Z,25.70
2019-04-16T14:49:22.598Z,25.10
2019-04-16T14:51:51.306Z,24.40
2019-04-16T14:54:27.387Z,24.30
2019-04-16T14:56:58.265Z,25.00
2019-04-16T14:59:37.276Z,25.30
2019-04-16T15:02:40.655Z,26.10
2019-04-16T15:05:15.482Z,25.80
2019-04-16T15:07:50.033Z,26.60
2019-04-16T15:10:26.594Z,26.80
2019-04-16T15:13:21.223Z,27.00
2019-04-16T15:16:06.043Z,26.60
2019-04-16T15:18:31.222Z,25.70
2019-04-16T15:21:17.911Z,25.00
2019-04-16T15:24:04.148Z,24.80
2019-04-16T15:26:38.605Z,24.80
2019-04-16T15:29:14.946Z,24.70
2019-04-16T15:31:50.990Z,24.60
2019-04-16T15:34:29.083Z,24.70
2019-04-16T15:37:02.158Z,25.40
2019-04-16T15:39:36.444Z,25.80
2019-04-16T15:42:21.960Z,25.80
2019-04-16T15:44:52.671Z,25.40
2019-04-16T15:47:24.238Z,25.20
2019-04-16T15:50:01.682Z,24.80
2019-04-16T15:52:34.538Z,24.90
2019-04-16T15:55:39.763Z,24.30
2019-04-16T15:58:15.699Z,23.90
2019-04-16T16:00:46.163Z,23.90
2019-04-16T16:03:28.652Z,23.50
2019-04-16T16:06:10.929Z,22.90
2019-04-16T16:08:44.205Z,22.90
2019-04-16T16:11:17.206Z,22.50
2019-04-16T16:13:45.018Z,22.40
2019-04-16T16:16:18.095Z,22.20
2019-04-16T16:18:45.118Z,22.60
2019-04-16T16:21:13.855Z,23.00
2019-04-16T16:23:42.492Z,23.20
2019-04-16T16:26:11.216Z,23.10
2019-04-16T16:28:39.889Z,23.50
2019-04-16T16:31:08.542Z,24.10
2019-04-16T16:33:37.248Z,23.80
2019-04-16T16:36:05.965Z,24.10
2019-04-16T16:38:34.643Z,23.70
2019-04-16T16:41:06.448Z,23.70
2019-04-16T16:43:35.212Z,23.30
2019-04-16T16:46:23.570Z,22.90
2019-04-16T16:48:53.696Z,22.60
2019-04-16T16:51:23.114Z,22.20
2019-04-16T16:54:02.594Z,22.10
2019-04-16T16:56:47.857Z,22.00
2019-04-16T16:59:20.874Z,21.80
2019-04-16T17:01:54.523Z,21.70
2019-04-16T17:04:25.104Z,21.50
2019-04-16T17:06:54.063Z,21.40
2019-04-16T17:09:27.207Z,21.30
2019-04-16T17:11:56.501Z,21.30
2019-04-16T17:14:25.334Z,21.00
2019-04-16T17:16:53.995Z,20.80
2019-04-16T17:19:22.810Z,20.80
2019-04-16T17:21:51.489Z,20.80
2019-04-16T17:24:20.215Z,20.60
2019-04-16T17:26:49.917Z,20.50
2019-04-16T17:29:19.322Z,20.50
2019-04-16T17:31:48.064Z,20.60
2019-04-16T17:34:16.800Z,20.50
2019-04-16T17:36:45.533Z,20.30
2019-04-16T17:39:15.906Z,20.10
2019-04-16T17:41:46.217Z,20.10
2019-04-16T17:44:16.578Z,20.10
2019-04-16T17:46:52.631Z,20.00
2019-04-16T17:49:31.734Z,19.70
2019-04-16T17:52:10.942Z,19.70
2019-04-16T17:54:44.223Z,19.50
2019-04-16T17:57:28.906Z,19.50
2019-04-16T18:00:04.146Z,19.50
2019-04-16T18:02:49.023Z,19.50
2019-04-16T18:05:34.265Z,19.50
2019-04-16T18:08:23.899Z,19.30
2019-04-16T18:10:57.068Z,19.20
2019-04-16T18:13:33.787Z,19.00
2019-04-16T18:16:20.722Z,18.70
2019-04-16T18:19:13.597Z,18.50
2019-04-16T18:21:46.535Z,18.40
2019-04-16T18:24:16.883Z,18.20
2019-04-16T18:26:47.196Z,18.10
2019-04-16T18:29:20.212Z,18.00
2019-04-16T18:31:59.426Z,17.90
2019-04-16T18:34:44.599Z,17.90
2019-04-16T18:37:17.722Z,18.00
2019-04-16T18:39:59.788Z,18.00
2019-04-16T18:42:46.394Z,18.00
2019-04-16T18:45:28.390Z,17.90
2019-04-16T18:48:04.703Z,17.80
2019-04-16T18:50:30.316Z,17.70
2019-04-16T18:52:59.117Z,17.70
2019-04-16T18:55:27.789Z,17.80
2019-04-16T18:57:56.548Z,17.70
2019-04-16T19:00:31.910Z,17.50
2019-04-16T19:03:00.058Z,17.40
2019-04-16T19:05:28.982Z,17.40
2019-04-16T19:07:59.752Z,17.30
2019-04-16T19:10:27.987Z,17.30
2019-04-16T19:12:56.687Z,17.20
2019-04-16T19:15:25.320Z,17.30
2019-04-16T19:17:54.186Z,17.30
2019-04-16T19:20:22.971Z,17.30
2019-04-16T19:22:52.045Z,17.30
2019-04-16T19:25:21.308Z,17.30
2019-04-16T19:27:50.129Z,17.40
2019-04-16T19:30:22.506Z,17.40
2019-04-16T19:32:49.427Z,17.40
2019-04-16T19:35:22.311Z,17.40
2019-04-16T19:37:48.686Z,17.30
2019-04-16T19:40:18.989Z,17.20
2019-04-16T19:42:47.968Z,17.10
2019-04-16T19:45:16.833Z,16.80
2019-04-16T19:47:45.575Z,16.80
2019-04-16T19:50:14.379Z,16.90
2019-04-16T19:52:45.597Z,16.80
2019-04-16T19:55:13.571Z,16.80
2019-04-16T19:57:42.355Z,16.70
2019-04-16T20:00:11.146Z,16.70
2019-04-16T20:02:40.029Z,16.70
2019-04-16T20:05:08.940Z,16.80
2019-04-16T20:07:37.789Z,16.80
2019-04-16T20:10:06.754Z,16.60
2019-04-16T20:12:35.407Z,16.50
2019-04-16T20:15:07.966Z,16.50
2019-04-16T20:17:35.387Z,16.50
2019-04-16T20:20:06.172Z,16.40
2019-04-16T20:22:34.858Z,16.40
2019-04-16T20:25:03.741Z,16.40
2019-04-16T20:27:32.395Z,16.50
2019-04-16T20:30:01.073Z,16.50
2019-04-16T20:32:31.095Z,16.40
2019-04-16T20:35:00.408Z,16.20
2019-04-16T20:37:29.070Z,16.10
2019-04-16T20:39:57.761Z,15.90
2019-04-16T20:42:26.482Z,15.80
2019-04-16T20:44:55.229Z,15.80
2019-04-16T20:47:23.851Z,15.70
2019-04-16T20:49:52.523Z,15.70
2019-04-16T20:52:22.449Z,15.80
2019-04-16T20:54:52.698Z,15.90
2019-04-16T20:57:25.345Z,15.90
2019-04-16T20:59:51.775Z,15.80
2019-04-16T21:02:20.707Z,15.60
2019-04-16T21:04:49.375Z,15.40
2019-04-16T21:07:18.060Z,15.20
2019-04-16T21:09:46.783Z,15.10
2019-04-16T21:12:15.448Z,15.20
2019-04-16T21:14:44.163Z,15.30
2019-04-16T21:17:12.875Z,15.40
2019-04-16T21:19:46.776Z,15.50
2019-04-16T21:22:16.465Z,15.50
2019-04-16T21:24:46.444Z,15.50
2019-04-16T21:27:15.426Z,15.50
2019-04-16T21:29:44.143Z,15.50
2019-04-16T21:32:23.132Z,15.50
2019-04-16T21:35:00.872Z,15.30
2019-04-16T21:37:47.598Z,15.20
2019-04-16T21:40:16.272Z,15.30
2019-04-16T21:42:44.944Z,15.30
2019-04-16T21:45:16.370Z,15.30
2019-04-16T21:47:45.095Z,15.10
2019-04-16T21:50:17.074Z,15.00
2019-04-16T21:52:45.899Z,14.70
2019-04-16T21:55:14.695Z,14.50
2019-04-16T21:57:46.058Z,14.30
2019-04-16T22:00:21.910Z,14.10
2019-04-16T22:02:53.956Z,14.00
2019-04-16T22:05:22.876Z,14.00
2019-04-16T22:07:53.665Z,13.90
2019-04-16T22:10:22.354Z,13.90
2019-04-16T22:12:52.358Z,13.90
2019-04-16T22:15:25.145Z,14.00
2019-04-16T22:17:51.315Z,14.10
2019-04-16T22:20:20.070Z,14.10
2019-04-16T22:22:48.731Z,14.00
2019-04-16T22:25:17.467Z,14.10
2019-04-16T22:27:46.260Z,14.20
2019-04-16T22:30:19.172Z,14.20
2019-04-16T22:32:45.750Z,14.20
2019-04-16T22:35:14.488Z,14.20
2019-04-16T22:37:43.203Z,14.10
2019-04-16T22:40:22.583Z,14.00
2019-04-16T22:43:08.576Z,13.90
2019-04-16T22:45:39.393Z,13.80
2019-04-16T22:48:08.059Z,13.80
2019-04-16T22:50:38.020Z,13.80
2019-04-16T22:53:07.029Z,13.70
2019-04-16T22:55:36.075Z,13.70
2019-04-16T22:58:05.027Z,13.60
2019-04-16T23:00:47.673Z,13.70
2019-04-16T23:03:16.583Z,13.50
2019-04-16T23:05:46.651Z,13.40
2019-04-16T23:08:15.306Z,13.30
2019-04-16T23:10:44.039Z,13.20
2019-04-16T23:13:12.710Z,13.20
2019-04-16T23:15:42.262Z,13.10
2019-04-16T23:18:10.982Z,13.20
2019-04-16T23:20:41.307Z,13.20
2019-04-16T23:23:10.030Z,13.20
2019-04-16T23:25:38.711Z,13.30
2019-04-16T23:28:10.644Z,13.40
2019-04-16T23:30:37.792Z,13.50
2019-04-16T23:33:06.529Z,13.40
2019-04-16T23:35:35.185Z,13.30
2019-04-16T23:38:03.916Z,13.20
2019-04-16T23:40:32.578Z,13.10
2019-04-16T23:43:08.455Z,13.00
2019-04-16T23:45:47.863Z,12.90
2019-04-16T23:48:28.013Z,12.90
2019-04-16T23:50:56.150Z,12.90
2019-04-16T23:53:32.078Z,12.90
2019-04-16T23:56:17.625Z,12.80
2019-04-16T23:58:46.559Z,12.70
